createdAt,value
2019-03-20T00:01:15.902Z,3.90
2019-03-20T00:03:20.264Z,4.37
2019-03-20T00:05:24.672Z,4.20
2019-03-20T00:07:34.047Z,4.73
2019-03-20T00:09:42.902Z,4.60
2019-03-20T00:11:47.407Z,4.67
2019-03-20T00:13:51.781Z,4.77
2019-03-20T00:15:56.227Z,4.63
2019-03-20T00:18:00.651Z,5.13
2019-03-20T00:20:06.127Z,4.87
2019-03-20T00:22:10.702Z,5.27
2019-03-20T00:24:15.096Z,4.53
2019-03-20T00:26:19.514Z,5.27
2019-03-20T00:28:24.235Z,5.23
2019-03-20T00:30:28.617Z,4.37
2019-03-20T00:32:33.061Z,5.33
2019-03-20T00:34:37.471Z,4.20
2019-03-20T00:36:41.914Z,4.67
2019-03-20T00:38:46.386Z,5.40
2019-03-20T00:40:50.764Z,5.37
2019-03-20T00:42:55.295Z,4.90
2019-03-20T00:44:59.675Z,5.00
2019-03-20T00:47:04.168Z,6.03
2019-03-20T00:49:08.582Z,5.43
2019-03-20T00:51:12.975Z,5.23
2019-03-20T00:53:17.358Z,5.77
2019-03-20T00:55:21.730Z,6.33
2019-03-20T00:57:26.120Z,4.70
2019-03-20T00:59:30.502Z,5.87
2019-03-20T01:01:34.951Z,5.40
2019-03-20T01:03:39.320Z,4.80
2019-03-20T01:05:43.743Z,4.73
2019-03-20T01:07:48.191Z,4.77
2019-03-20T01:09:52.652Z,4.50
2019-03-20T01:11:57.025Z,5.53
2019-03-20T01:14:01.407Z,5.40
2019-03-20T01:16:05.879Z,5.77
2019-03-20T01:18:10.243Z,6.13
2019-03-20T01:20:16.359Z,5.70
2019-03-20T01:22:20.772Z,4.47
2019-03-20T01:24:25.192Z,4.37
2019-03-20T01:26:29.545Z,5.00
2019-03-20T01:28:33.887Z,5.17
2019-03-20T01:30:38.551Z,5.20
2019-03-20T01:32:42.945Z,5.27
2019-03-20T01:34:47.321Z,5.73
2019-03-20T01:36:51.842Z,5.80
2019-03-20T01:38:56.217Z,5.77
2019-03-20T01:41:00.575Z,5.70
2019-03-20T01:43:05.147Z,6.07
2019-03-20T01:45:10.182Z,5.93
2019-03-20T01:47:14.568Z,5.93
2019-03-20T01:49:18.906Z,6.60
2019-03-20T01:51:23.350Z,6.20
2019-03-20T01:53:27.717Z,6.77
2019-03-20T01:55:32.050Z,6.30
2019-03-20T01:57:36.587Z,6.53
2019-03-20T01:59:40.945Z,6.23
2019-03-20T02:01:45.352Z,7.13
2019-03-20T02:03:49.747Z,6.57
2019-03-20T02:05:54.084Z,7.30
2019-03-20T02:07:58.484Z,6.43
2019-03-20T02:10:02.917Z,5.63
2019-03-20T02:12:07.305Z,5.57
2019-03-20T02:14:11.653Z,5.40
2019-03-20T02:16:16.070Z,6.90
2019-03-20T02:18:20.483Z,6.20
2019-03-20T02:20:24.875Z,6.13
2019-03-20T02:22:29.395Z,6.43
2019-03-20T02:24:33.803Z,5.83
2019-03-20T02:26:38.166Z,5.23
2019-03-20T02:28:42.507Z,5.50
2019-03-20T02:30:46.933Z,4.90
2019-03-20T02:32:51.397Z,4.90
2019-03-20T02:34:55.847Z,5.30
2019-03-20T02:37:00.287Z,6.37
2019-03-20T02:39:06.100Z,5.47
2019-03-20T02:41:10.555Z,4.80
2019-03-20T02:43:14.947Z,4.93
2019-03-20T02:45:19.423Z,5.17
2019-03-20T02:47:23.814Z,6.17
2019-03-20T02:49:28.239Z,5.63
2019-03-20T02:51:32.638Z,5.23
2019-03-20T02:53:37.008Z,4.77
2019-03-20T02:55:41.417Z,5.73
2019-03-20T02:57:45.803Z,4.90
2019-03-20T02:59:50.273Z,6.10
2019-03-20T03:01:54.680Z,6.40
2019-03-20T03:03:59.096Z,5.67
2019-03-20T03:06:06.993Z,6.60
2019-03-20T03:08:08.038Z,6.57
2019-03-20T03:10:12.706Z,5.93
2019-03-20T03:12:17.081Z,5.67
2019-03-20T03:14:21.491Z,6.27
2019-03-20T03:16:25.917Z,7.40
2019-03-20T03:18:30.289Z,5.90
2019-03-20T03:20:34.671Z,5.97
2019-03-20T03:22:39.074Z,5.13
2019-03-20T03:24:43.551Z,6.07
2019-03-20T03:26:47.972Z,6.00
2019-03-20T03:28:52.357Z,6.30
2019-03-20T03:30:56.731Z,5.97
2019-03-20T03:33:01.161Z,6.03
2019-03-20T03:35:05.885Z,6.43
2019-03-20T03:37:10.413Z,5.73
2019-03-20T03:39:14.882Z,7.17
2019-03-20T03:41:19.299Z,5.63
2019-03-20T03:43:24.442Z,5.77
2019-03-20T03:45:28.325Z,7.10
2019-03-20T03:47:32.733Z,7.07
2019-03-20T03:49:37.195Z,8.33
2019-03-20T03:51:41.655Z,8.37
2019-03-20T03:53:45.935Z,7.57
2019-03-20T03:55:50.334Z,7.47
2019-03-20T03:57:54.927Z,7.53
2019-03-20T03:59:59.335Z,6.57
2019-03-20T04:02:03.740Z,6.93
2019-03-20T04:04:08.387Z,7.27
2019-03-20T04:06:12.899Z,6.97
2019-03-20T04:08:17.434Z,6.23
2019-03-20T04:10:21.893Z,7.17
2019-03-20T04:12:26.314Z,7.43
2019-03-20T04:14:30.730Z,7.17
2019-03-20T04:16:35.088Z,7.67
2019-03-20T04:18:39.482Z,7.60
2019-03-20T04:20:43.997Z,7.63
2019-03-20T04:22:48.501Z,7.20
2019-03-20T04:24:52.942Z,7.50
2019-03-20T04:26:57.547Z,7.10
2019-03-20T04:29:02.305Z,7.53
2019-03-20T04:31:06.596Z,7.87
2019-03-20T04:33:11.053Z,8.33
2019-03-20T04:35:15.613Z,8.47
2019-03-20T04:37:20.042Z,6.73
2019-03-20T04:39:24.415Z,9.13
2019-03-20T04:41:28.891Z,8.13
2019-03-20T04:43:33.309Z,6.23
2019-03-20T04:45:37.726Z,7.70
2019-03-20T04:47:42.171Z,8.00
2019-03-20T04:49:46.634Z,7.23
2019-03-20T04:51:51.038Z,5.97
2019-03-20T04:53:55.506Z,6.70
2019-03-20T04:55:59.915Z,6.33
2019-03-20T04:58:04.390Z,6.90
2019-03-20T05:00:11.382Z,5.97
2019-03-20T05:02:15.859Z,6.67
2019-03-20T05:04:20.227Z,7.30
2019-03-20T05:06:24.707Z,9.80
2019-03-20T05:08:29.073Z,6.70
2019-03-20T05:10:33.430Z,7.83
2019-03-20T05:12:37.995Z,9.20
2019-03-20T05:14:43.379Z,8.57
2019-03-20T05:16:47.767Z,7.40
2019-03-20T05:18:52.195Z,10.83
2019-03-20T05:20:56.527Z,9.90
2019-03-20T05:23:00.928Z,8.67
2019-03-20T05:25:06.112Z,9.90
2019-03-20T05:27:10.573Z,9.30
2019-03-20T05:29:14.941Z,9.30
2019-03-20T05:31:19.345Z,9.83
2019-03-20T05:33:23.776Z,10.00
2019-03-20T05:35:28.126Z,8.53
2019-03-20T05:37:32.530Z,8.80
2019-03-20T05:39:36.941Z,8.73
2019-03-20T05:41:41.381Z,8.43
2019-03-20T05:43:45.806Z,8.80
2019-03-20T05:45:50.218Z,10.77
2019-03-20T05:47:54.626Z,10.10
2019-03-20T05:49:59.046Z,10.67
2019-03-20T05:52:03.461Z,9.27
2019-03-20T05:54:07.836Z,9.43
2019-03-20T05:56:12.151Z,8.60
2019-03-20T05:58:16.552Z,8.87
2019-03-20T06:00:20.979Z,8.87
2019-03-20T06:02:25.854Z,8.97
2019-03-20T06:04:29.731Z,10.93
2019-03-20T06:06:34.205Z,10.63
2019-03-20T06:08:38.595Z,9.13
2019-03-20T06:10:42.979Z,7.20
2019-03-20T06:12:47.417Z,9.57
2019-03-20T06:14:51.834Z,9.70
2019-03-20T06:16:56.154Z,9.57
2019-03-20T06:19:00.538Z,10.73
2019-03-20T06:21:05.003Z,10.10
2019-03-20T06:23:11.124Z,10.03
2019-03-20T06:25:13.921Z,9.13
2019-03-20T06:27:18.343Z,10.27
2019-03-20T06:29:22.762Z,10.50
2019-03-20T06:31:27.166Z,8.67
2019-03-20T06:33:31.620Z,8.10
2019-03-20T06:35:36.036Z,9.33
2019-03-20T06:37:40.429Z,10.80
2019-03-20T06:39:44.886Z,10.50
2019-03-20T06:41:49.277Z,6.70
2019-03-20T06:43:53.695Z,8.70
2019-03-20T06:45:58.115Z,9.20
2019-03-20T06:48:02.528Z,8.70
2019-03-20T06:50:09.758Z,9.43
2019-03-20T06:52:14.222Z,9.67
2019-03-20T06:54:18.657Z,9.23
2019-03-20T06:56:23.038Z,10.00
2019-03-20T06:58:27.460Z,9.47
2019-03-20T07:00:49.619Z,8.80
2019-03-20T07:02:54.056Z,9.20
2019-03-20T07:05:09.322Z,7.93
2019-03-20T07:07:26.447Z,7.27
2019-03-20T07:09:41.198Z,6.93
2019-03-20T07:11:45.808Z,7.57
2019-03-20T07:13:50.725Z,4.43
2019-03-20T07:15:54.628Z,4.33
2019-03-20T07:17:59.044Z,6.07
2019-03-20T07:20:03.495Z,4.00
2019-03-20T07:22:07.887Z,5.70
2019-03-20T07:24:12.328Z,7.40
2019-03-20T07:26:16.728Z,6.30
2019-03-20T07:28:21.194Z,5.83
2019-03-20T07:30:25.546Z,5.20
2019-03-20T07:32:30.126Z,5.67
2019-03-20T07:34:34.399Z,5.43
2019-03-20T07:36:38.770Z,3.70
2019-03-20T07:38:43.191Z,5.20
2019-03-20T07:40:47.641Z,4.57
2019-03-20T07:42:52.010Z,5.33
2019-03-20T07:44:56.372Z,4.97
2019-03-20T07:47:00.814Z,5.97
2019-03-20T07:49:06.134Z,5.63
2019-03-20T07:51:10.502Z,6.17
2019-03-20T07:53:14.947Z,5.80
2019-03-20T07:55:19.362Z,6.03
2019-03-20T07:57:23.735Z,4.93
2019-03-20T07:59:28.125Z,3.20
2019-03-20T08:01:32.478Z,4.60
2019-03-20T08:03:36.834Z,6.67
2019-03-20T08:05:41.255Z,4.97
2019-03-20T08:07:45.675Z,5.27
2019-03-20T08:09:50.064Z,4.47
2019-03-20T08:11:54.406Z,4.33
2019-03-20T08:13:58.802Z,5.40
2019-03-20T08:16:04.105Z,5.47
2019-03-20T08:18:07.603Z,4.73
2019-03-20T08:20:12.888Z,5.07
2019-03-20T08:22:17.329Z,3.90
2019-03-20T08:24:21.695Z,4.63
2019-03-20T08:26:26.126Z,3.00
2019-03-20T08:28:30.503Z,3.67
2019-03-20T08:30:34.893Z,2.93
2019-03-20T08:32:39.325Z,3.60
2019-03-20T08:34:43.760Z,4.87
2019-03-20T08:36:48.073Z,4.20
2019-03-20T08:38:52.418Z,3.93
2019-03-20T08:40:56.842Z,4.23
2019-03-20T08:43:01.223Z,3.50
2019-03-20T08:45:06.130Z,3.63
2019-03-20T08:47:10.500Z,4.17
2019-03-20T08:49:14.870Z,4.97
2019-03-20T08:51:19.254Z,4.33
2019-03-20T08:53:23.642Z,3.50
2019-03-20T08:55:28.012Z,3.43
2019-03-20T08:57:32.379Z,3.63
2019-03-20T08:59:36.715Z,3.87
2019-03-20T09:01:41.188Z,4.87
2019-03-20T09:03:45.577Z,4.13
2019-03-20T09:05:49.987Z,4.97
2019-03-20T09:07:54.377Z,3.23
2019-03-20T09:09:58.763Z,4.03
2019-03-20T09:12:03.134Z,2.93
2019-03-20T09:14:07.530Z,4.20
2019-03-20T09:16:11.898Z,3.43
2019-03-20T09:18:16.270Z,4.90
2019-03-20T09:20:20.696Z,3.73
2019-03-20T09:22:25.370Z,3.93
2019-03-20T09:24:29.747Z,3.60
2019-03-20T09:26:34.155Z,4.13
2019-03-20T09:28:38.566Z,4.33
2019-03-20T09:30:42.990Z,4.73
2019-03-20T09:32:47.398Z,4.73
2019-03-20T09:34:51.822Z,4.53
2019-03-20T09:36:56.317Z,4.27
2019-03-20T09:39:00.832Z,1.23
2019-03-20T09:41:05.364Z,4.90
2019-03-20T09:43:11.455Z,1.73
2019-03-20T09:45:16.252Z,3.60
2019-03-20T09:47:20.641Z,2.73
2019-03-20T09:49:25.028Z,4.07
2019-03-20T09:51:29.430Z,2.47
2019-03-20T09:53:33.773Z,2.83
2019-03-20T09:55:38.161Z,3.77
2019-03-20T09:57:42.632Z,2.43
2019-03-20T09:59:47.032Z,2.80
2019-03-20T10:01:51.387Z,4.73
2019-03-20T10:03:55.789Z,4.97
2019-03-20T10:06:00.201Z,3.97
2019-03-20T10:08:04.694Z,5.07
2019-03-20T10:10:09.708Z,5.20
2019-03-20T10:12:14.145Z,3.03
2019-03-20T10:14:18.476Z,4.90
2019-03-20T10:16:22.851Z,4.03
2019-03-20T10:18:27.325Z,4.83
2019-03-20T10:20:31.699Z,3.83
2019-03-20T10:22:36.082Z,4.30
2019-03-20T10:24:40.457Z,4.87
2019-03-20T10:26:44.842Z,4.67
2019-03-20T10:28:49.246Z,3.90
2019-03-20T10:30:53.646Z,2.97
2019-03-20T10:32:58.043Z,4.37
2019-03-20T10:35:02.413Z,3.10
2019-03-20T10:37:06.792Z,5.23
2019-03-20T10:39:11.300Z,4.07
2019-03-20T10:41:15.591Z,4.77
2019-03-20T10:43:19.979Z,4.50
2019-03-20T10:45:24.450Z,4.77
2019-03-20T10:47:28.857Z,4.93
2019-03-20T10:49:33.293Z,3.30
2019-03-20T10:51:37.643Z,4.17
2019-03-20T10:53:42.034Z,4.97
2019-03-20T10:55:46.398Z,4.60
2019-03-20T10:57:56.103Z,3.07
2019-03-20T11:00:00.480Z,4.23
2019-03-20T11:02:04.946Z,5.17
2019-03-20T11:04:09.366Z,6.00
2019-03-20T11:06:13.747Z,5.97
2019-03-20T11:08:18.207Z,6.03
2019-03-20T11:10:23.018Z,8.53
2019-03-20T11:12:27.403Z,5.10
2019-03-20T11:14:31.803Z,5.03
2019-03-20T11:16:36.212Z,4.10
2019-03-20T11:18:40.696Z,3.93
2019-03-20T11:20:45.073Z,4.40
2019-03-20T11:22:49.520Z,4.27
2019-03-20T11:24:53.905Z,4.10
2019-03-20T11:26:58.302Z,4.43
2019-03-20T11:29:02.670Z,3.77
2019-03-20T11:31:07.130Z,3.70
2019-03-20T11:33:11.592Z,3.83
2019-03-20T11:35:17.048Z,4.13
2019-03-20T11:37:21.464Z,3.63
2019-03-20T11:39:29.959Z,4.57
2019-03-20T11:41:30.353Z,4.17
2019-03-20T11:43:35.440Z,4.40
2019-03-20T11:45:39.834Z,4.07
2019-03-20T11:47:44.207Z,3.13
2019-03-20T11:49:48.603Z,3.10
2019-03-20T11:51:53.007Z,1.13
2019-03-20T11:53:57.379Z,2.43
2019-03-20T11:56:01.808Z,1.60
2019-03-20T11:58:06.285Z,2.00
2019-03-20T12:00:16.211Z,1.57
2019-03-20T12:02:27.952Z,1.60
2019-03-20T12:04:25.218Z,1.87
2019-03-20T12:06:29.542Z,1.87
2019-03-20T12:08:33.927Z,1.20
2019-03-20T12:10:38.284Z,1.60
2019-03-20T12:12:42.740Z,1.90
2019-03-20T12:14:48.125Z,1.30
2019-03-20T12:16:57.594Z,1.67
2019-03-20T12:19:02.292Z,1.00
2019-03-20T12:21:06.690Z,1.10
2019-03-20T12:23:11.125Z,1.30
2019-03-20T12:25:18.452Z,1.13
2019-03-20T12:27:22.786Z,1.50
2019-03-20T12:29:27.174Z,1.03
2019-03-20T12:31:31.490Z,1.13
2019-03-20T12:33:36.136Z,1.00
2019-03-20T12:35:40.529Z,1.23
2019-03-20T12:37:45.034Z,1.37
2019-03-20T12:39:53.462Z,0.90
2019-03-20T12:41:53.854Z,1.10
2019-03-20T12:43:58.247Z,0.83
2019-03-20T12:46:02.659Z,1.10
2019-03-20T12:48:07.227Z,1.37
2019-03-20T12:50:11.806Z,1.30
2019-03-20T12:52:16.206Z,1.10
2019-03-20T12:54:20.615Z,1.77
2019-03-20T12:56:25.087Z,1.33
2019-03-20T12:58:29.449Z,1.17
2019-03-20T13:00:33.817Z,0.87
2019-03-20T13:02:38.217Z,0.97
2019-03-20T13:04:42.609Z,1.20
2019-03-20T13:06:46.931Z,0.90
2019-03-20T13:08:51.334Z,1.23
2019-03-20T13:10:55.684Z,1.00
2019-03-20T13:13:00.173Z,1.50
2019-03-20T13:15:05.350Z,1.10
2019-03-20T13:17:09.899Z,1.07
2019-03-20T13:19:15.455Z,1.37
2019-03-20T13:21:19.835Z,1.60
2019-03-20T13:23:26.380Z,1.40
2019-03-20T13:25:30.810Z,1.37
2019-03-20T13:27:35.186Z,1.33
2019-03-20T13:29:39.541Z,1.80
2019-03-20T13:31:43.970Z,1.23
2019-03-20T13:33:49.279Z,0.93
2019-03-20T13:35:52.768Z,1.17
2019-03-20T13:37:57.102Z,1.00
2019-03-20T13:40:01.456Z,1.10
2019-03-20T13:42:05.855Z,1.20
2019-03-20T13:44:10.274Z,0.80
2019-03-20T13:46:14.642Z,1.37
2019-03-20T13:48:18.986Z,0.97
2019-03-20T13:50:23.354Z,1.73
2019-03-20T13:52:27.702Z,1.00
2019-03-20T13:54:32.107Z,1.10
2019-03-20T13:56:36.526Z,1.20
2019-03-20T13:58:40.924Z,1.40
2019-03-20T14:00:45.318Z,1.23
2019-03-20T14:02:49.690Z,0.80
2019-03-20T14:04:54.094Z,0.80
2019-03-20T14:06:58.495Z,0.80
2019-03-20T14:09:02.943Z,0.73
2019-03-20T14:23:32.693Z,2.10
2019-03-20T14:25:37.086Z,1.20
2019-03-20T14:27:41.537Z,1.00
2019-03-20T14:29:45.922Z,0.90
2019-03-20T14:31:50.305Z,1.10
2019-03-20T14:33:55.025Z,1.83
2019-03-20T14:35:59.436Z,1.57
2019-03-20T14:38:03.835Z,1.37
2019-03-20T14:40:09.383Z,1.27
2019-03-20T14:42:15.096Z,1.37
2019-03-20T14:44:19.465Z,1.53
2019-03-20T14:46:23.963Z,1.90
2019-03-20T14:48:28.380Z,2.17
2019-03-20T14:50:32.915Z,2.27
2019-03-20T14:52:37.313Z,1.20
2019-03-20T14:54:41.728Z,1.47
2019-03-20T14:56:46.158Z,1.50
2019-03-20T14:58:50.539Z,1.53
2019-03-20T15:00:54.993Z,1.67
2019-03-20T15:02:59.451Z,1.30
2019-03-20T15:05:04.336Z,1.83
2019-03-20T15:07:08.790Z,1.73
2019-03-20T15:09:13.263Z,1.60
2019-03-20T15:11:17.645Z,1.43
2019-03-20T15:13:22.548Z,1.60
2019-03-20T15:15:34.915Z,1.67
2019-03-20T15:17:39.401Z,1.70
2019-03-20T15:19:43.956Z,2.00
2019-03-20T15:21:48.423Z,1.60
2019-03-20T15:23:53.034Z,1.70
2019-03-20T15:25:57.471Z,1.70
2019-03-20T15:28:01.867Z,1.70
2019-03-20T15:30:08.396Z,1.70
2019-03-20T15:32:12.854Z,1.60
2019-03-20T15:34:17.205Z,2.13
2019-03-20T15:36:21.741Z,1.50
2019-03-20T15:38:26.124Z,1.93
2019-03-20T15:40:30.576Z,1.80
2019-03-20T15:42:35.141Z,2.60
2019-03-20T15:44:39.634Z,1.93
2019-03-20T15:46:44.112Z,1.63
2019-03-20T15:48:48.600Z,2.00
2019-03-20T15:50:53.050Z,2.10
2019-03-20T15:52:57.583Z,2.57
2019-03-20T15:55:02.066Z,1.83
2019-03-20T15:57:06.541Z,2.47
2019-03-20T15:59:10.980Z,2.43
2019-03-20T16:01:15.373Z,1.70
2019-03-20T16:03:20.550Z,1.80
2019-03-20T16:05:26.129Z,1.67
2019-03-20T16:07:30.503Z,1.80
2019-03-20T16:09:34.919Z,2.03
2019-03-20T16:11:39.281Z,1.93
2019-03-20T16:13:43.647Z,1.90
2019-03-20T16:15:48.061Z,2.73
2019-03-20T16:17:55.870Z,2.23
2019-03-20T16:20:00.312Z,2.47
2019-03-20T16:22:04.738Z,2.67
2019-03-20T16:24:09.134Z,2.90
2019-03-20T16:26:13.550Z,2.40
2019-03-20T16:28:17.945Z,2.43
2019-03-20T16:30:22.843Z,2.53
2019-03-20T16:32:27.189Z,3.30
2019-03-20T16:34:32.423Z,2.87
2019-03-20T16:36:36.770Z,2.90
2019-03-20T16:38:41.687Z,2.57
2019-03-20T16:40:46.091Z,3.03
2019-03-20T16:42:50.930Z,3.60
2019-03-20T16:44:55.875Z,2.83
2019-03-20T16:47:00.371Z,2.90
2019-03-20T16:49:04.775Z,2.60
2019-03-20T16:51:09.194Z,3.60
2019-03-20T16:53:20.089Z,2.53
2019-03-20T16:55:24.498Z,2.63
2019-03-20T16:57:30.133Z,3.60
2019-03-20T16:59:34.507Z,3.00
2019-03-20T17:01:38.998Z,3.53
2019-03-20T17:03:43.343Z,3.37
2019-03-20T17:05:47.784Z,2.50
2019-03-20T17:07:52.248Z,3.27
2019-03-20T17:09:56.834Z,3.00
2019-03-20T17:12:01.390Z,3.03
2019-03-20T17:14:05.853Z,3.03
2019-03-20T17:16:12.012Z,3.40
2019-03-20T17:18:17.272Z,3.23
2019-03-20T17:20:21.626Z,2.83
2019-03-20T17:22:26.023Z,2.67
2019-03-20T17:24:30.692Z,3.00
2019-03-20T17:26:35.048Z,3.37
2019-03-20T17:28:39.593Z,3.07
2019-03-20T17:30:44.084Z,3.60
2019-03-20T17:32:48.538Z,2.90
2019-03-20T17:34:52.953Z,3.27
2019-03-20T17:36:57.342Z,3.33
2019-03-20T17:39:01.771Z,3.10
2019-03-20T17:41:07.143Z,3.30
2019-03-20T17:43:11.609Z,3.57
2019-03-20T17:45:16.644Z,3.37
2019-03-20T17:47:21.051Z,3.30
2019-03-20T17:49:25.506Z,3.37
2019-03-20T17:51:29.887Z,3.30
2019-03-20T17:53:34.274Z,2.97
2019-03-20T17:55:38.731Z,2.67
2019-03-20T17:57:43.119Z,2.77
2019-03-20T17:59:47.560Z,3.03
2019-03-20T18:01:51.976Z,2.50
2019-03-20T18:03:56.431Z,2.83
2019-03-20T18:06:00.830Z,3.43
2019-03-20T18:08:05.424Z,3.10
2019-03-20T18:10:09.820Z,3.57
2019-03-20T18:12:14.431Z,3.13
2019-03-20T18:14:18.798Z,3.17
2019-03-20T18:16:23.254Z,3.63
2019-03-20T18:18:27.630Z,3.60
2019-03-20T18:20:32.010Z,3.10
2019-03-20T18:22:36.427Z,3.77
2019-03-20T18:24:40.806Z,3.37
2019-03-20T18:26:45.185Z,3.57
2019-03-20T18:28:49.638Z,3.33
2019-03-20T18:30:54.113Z,4.37
2019-03-20T18:32:58.492Z,3.30
2019-03-20T18:35:03.025Z,3.20
2019-03-20T18:37:07.440Z,4.80
2019-03-20T18:39:11.903Z,4.40
2019-03-20T18:41:16.346Z,4.53
2019-03-20T18:43:20.755Z,5.73
2019-03-20T18:45:26.222Z,5.23
2019-03-20T18:47:30.622Z,4.87
2019-03-20T18:49:35.007Z,3.60
2019-03-20T18:51:39.433Z,4.40
2019-03-20T18:53:44.590Z,3.40
2019-03-20T18:55:50.649Z,3.90
2019-03-20T18:57:55.199Z,4.80
2019-03-20T18:59:59.587Z,3.47
2019-03-20T19:02:04.036Z,3.10
2019-03-20T19:04:08.472Z,3.00
2019-03-20T19:06:18.649Z,3.10
2019-03-20T19:08:23.091Z,3.93
2019-03-20T19:10:27.557Z,3.13
2019-03-20T19:12:32.438Z,3.43
2019-03-20T19:14:36.890Z,3.73
2019-03-20T19:16:41.296Z,3.17
2019-03-20T19:18:45.732Z,3.40
2019-03-20T19:20:50.165Z,3.40
2019-03-20T19:22:54.618Z,3.57
2019-03-20T19:24:59.026Z,4.20
2019-03-20T19:27:03.514Z,4.27
2019-03-20T19:29:08.010Z,4.77
2019-03-20T19:31:12.440Z,4.10
2019-03-20T19:33:16.846Z,4.10
2019-03-20T19:35:22.247Z,4.20
2019-03-20T19:37:26.662Z,4.43
2019-03-20T19:39:31.099Z,4.73
2019-03-20T19:41:35.498Z,4.67
2019-03-20T19:43:39.960Z,4.53
2019-03-20T19:45:44.389Z,4.80
2019-03-20T19:47:48.825Z,4.27
2019-03-20T19:49:53.234Z,5.20
2019-03-20T19:51:57.601Z,4.77
2019-03-20T19:54:01.980Z,4.67
2019-03-20T19:56:06.419Z,4.40
2019-03-20T19:58:10.808Z,4.67
2019-03-20T20:00:15.731Z,3.77
2019-03-20T20:02:20.995Z,4.20
2019-03-20T20:04:25.426Z,4.10
2019-03-20T20:06:29.815Z,4.20
2019-03-20T20:08:34.283Z,3.83
2019-03-20T20:10:38.810Z,4.17
2019-03-20T20:12:43.259Z,4.07
2019-03-20T20:14:47.662Z,3.83
2019-03-20T20:16:52.040Z,3.77
2019-03-20T20:18:56.483Z,4.47
2019-03-20T20:21:00.853Z,4.10
2019-03-20T20:25:32.379Z,4.23
2019-03-20T20:27:36.784Z,4.40
2019-03-20T20:29:41.231Z,3.97
2019-03-20T20:31:45.623Z,4.53
2019-03-20T20:33:52.491Z,4.10
2019-03-20T20:35:56.945Z,5.10
2019-03-20T20:38:01.358Z,4.63
2019-03-20T20:40:06.446Z,4.77
2019-03-20T20:42:10.844Z,3.87
2019-03-20T20:44:15.239Z,4.57
2019-03-20T20:46:19.628Z,4.40
2019-03-20T20:48:24.047Z,4.73
2019-03-20T20:50:28.501Z,4.40
2019-03-20T20:52:33.075Z,4.67
2019-03-20T20:54:38.542Z,4.53
2019-03-20T20:56:43.030Z,4.13
2019-03-20T20:58:47.408Z,4.37
2019-03-20T21:00:51.990Z,4.57
2019-03-20T21:02:56.414Z,4.37
2019-03-20T21:05:00.842Z,4.17
2019-03-20T21:07:05.293Z,4.37
2019-03-20T21:09:09.746Z,4.70
2019-03-20T21:11:14.190Z,3.70
2019-03-20T21:13:18.600Z,4.57
2019-03-20T21:23:57.607Z,3.50
2019-03-20T21:30:02.255Z,7.17
2019-03-20T21:36:53.613Z,5.77
2019-03-20T21:41:49.164Z,4.53
2019-03-20T22:01:13.161Z,4.23
2019-03-20T22:10:17.126Z,5.70
2019-03-20T22:17:02.776Z,4.73
2019-03-20T22:21:23.692Z,4.43
2019-03-20T22:34:03.088Z,5.13
2019-03-20T22:43:30.546Z,5.87
2019-03-20T22:48:02.929Z,3.70
